createdAt,value
2019-02-18T00:02:11.977Z,5.53
2019-02-18T00:05:00.240Z,4.57
2019-02-18T00:07:48.268Z,5.60
2019-02-18T00:10:36.202Z,7.07
2019-02-18T00:13:24.209Z,6.20
2019-02-18T00:16:12.867Z,5.47
2019-02-18T00:19:00.986Z,6.00
2019-02-18T00:21:49.394Z,6.83
2019-02-18T00:24:37.530Z,6.53
2019-02-18T00:27:25.735Z,8.00
2019-02-18T00:30:14.090Z,7.13
2019-02-18T00:33:01.861Z,6.00
2019-02-18T00:35:49.967Z,6.53
2019-02-18T00:38:38.140Z,7.27
2019-02-18T00:41:26.101Z,6.13
2019-02-18T00:44:14.489Z,6.17
2019-02-18T00:47:02.099Z,4.90
2019-02-18T00:49:50.006Z,6.87
2019-02-18T00:52:38.159Z,6.03
2019-02-18T00:55:26.220Z,6.97
2019-02-18T00:58:14.862Z,3.87
2019-02-18T01:01:02.816Z,5.63
2019-02-18T01:03:50.726Z,3.90
2019-02-18T01:06:38.739Z,2.90
2019-02-18T01:09:26.765Z,3.23
2019-02-18T01:12:14.721Z,3.03
2019-02-18T01:15:02.914Z,3.07
2019-02-18T01:17:51.179Z,6.93
2019-02-18T01:20:39.009Z,5.20
2019-02-18T01:23:26.789Z,4.43
2019-02-18T01:26:14.610Z,5.77
2019-02-18T01:29:02.630Z,8.13
2019-02-18T01:31:50.544Z,5.73
2019-02-18T01:34:38.637Z,4.47
2019-02-18T01:37:26.784Z,4.70
2019-02-18T01:40:15.397Z,5.17
2019-02-18T01:43:03.430Z,5.23
2019-02-18T01:45:51.512Z,5.57
2019-02-18T01:48:39.355Z,7.13
2019-02-18T01:51:27.276Z,6.07
2019-02-18T01:54:15.383Z,6.07
2019-02-18T01:57:03.344Z,7.50
2019-02-18T01:59:50.891Z,6.13
2019-02-18T02:02:38.870Z,7.13
2019-02-18T02:05:26.850Z,5.47
2019-02-18T02:08:14.379Z,6.03
2019-02-18T02:11:02.452Z,7.20
2019-02-18T02:13:50.547Z,6.97
2019-02-18T02:16:38.833Z,8.33
2019-02-18T02:19:26.805Z,6.07
2019-02-18T02:22:15.001Z,5.97
2019-02-18T02:25:02.888Z,9.23
2019-02-18T02:27:51.101Z,8.27
2019-02-18T02:30:39.054Z,8.40
2019-02-18T02:33:26.967Z,6.63
2019-02-18T02:36:15.151Z,8.40
2019-02-18T02:39:03.920Z,4.83
2019-02-18T02:41:52.052Z,4.83
2019-02-18T02:44:40.194Z,5.27
2019-02-18T02:47:28.012Z,4.70
2019-02-18T02:50:16.047Z,4.63
2019-02-18T02:53:02.998Z,6.47
2019-02-18T02:55:50.783Z,4.27
2019-02-18T02:58:38.614Z,3.47
2019-02-18T03:01:26.697Z,3.30
2019-02-18T03:04:14.555Z,5.93
2019-02-18T03:07:02.647Z,6.93
2019-02-18T03:09:50.602Z,7.03
2019-02-18T03:12:39.012Z,7.30
2019-02-18T03:15:27.067Z,8.90
2019-02-18T03:18:15.308Z,10.07
2019-02-18T03:21:03.241Z,9.50
2019-02-18T03:23:51.597Z,7.93
2019-02-18T03:26:39.531Z,8.83
2019-02-18T03:30:03.703Z,7.97
2019-02-18T03:32:55.462Z,6.67
2019-02-18T03:35:43.332Z,8.67
2019-02-18T03:38:32.172Z,6.43
2019-02-18T03:41:20.270Z,10.00
2019-02-18T03:44:08.411Z,8.50
2019-02-18T03:46:56.504Z,10.07
2019-02-18T03:49:44.334Z,6.07
2019-02-18T03:52:31.989Z,8.70
2019-02-18T03:55:20.372Z,6.83
2019-02-18T03:58:08.556Z,6.60
2019-02-18T04:00:56.160Z,6.63
2019-02-18T04:03:44.037Z,6.33
2019-02-18T04:06:31.987Z,5.80
2019-02-18T04:09:19.897Z,7.30
2019-02-18T04:12:07.837Z,12.40
2019-02-18T04:14:56.155Z,7.27
2019-02-18T04:17:44.518Z,6.53
2019-02-18T04:20:32.313Z,8.67
2019-02-18T04:23:20.241Z,7.20
2019-02-18T04:26:08.112Z,6.60
2019-02-18T04:28:56.526Z,7.73
2019-02-18T04:31:44.466Z,7.70
2019-02-18T04:34:32.163Z,11.07
2019-02-18T04:37:20.037Z,6.93
2019-02-18T04:40:08.240Z,7.63
2019-02-18T04:42:56.345Z,4.90
2019-02-18T04:45:44.339Z,6.97
2019-02-18T04:48:32.631Z,6.97
2019-02-18T04:51:20.789Z,4.43
2019-02-18T04:54:08.855Z,3.83
2019-02-18T04:56:56.584Z,3.67
2019-02-18T04:59:44.754Z,3.90
2019-02-18T05:02:32.426Z,6.03
2019-02-18T05:05:20.459Z,3.00
2019-02-18T05:08:08.265Z,2.77
2019-02-18T05:10:56.473Z,4.20
2019-02-18T05:13:45.939Z,4.27
2019-02-18T05:16:34.123Z,5.07
2019-02-18T05:19:23.040Z,3.67
2019-02-18T05:22:11.032Z,4.17
2019-02-18T05:24:58.924Z,6.80
2019-02-18T05:27:46.942Z,4.33
2019-02-18T05:30:35.091Z,4.37
2019-02-18T05:33:23.268Z,3.87
2019-02-18T05:36:11.092Z,6.03
2019-02-18T05:38:59.043Z,4.20
2019-02-18T05:41:47.230Z,6.10
2019-02-18T05:44:34.912Z,7.67
2019-02-18T05:47:23.012Z,4.60
2019-02-18T05:50:11.110Z,4.40
2019-02-18T05:52:59.071Z,6.50
2019-02-18T05:55:46.894Z,5.77
2019-02-18T05:58:35.075Z,5.57
2019-02-18T06:01:23.422Z,9.10
2019-02-18T06:04:11.563Z,7.10
2019-02-18T06:06:59.180Z,4.07
2019-02-18T06:09:47.052Z,7.43
2019-02-18T06:12:35.735Z,4.00
2019-02-18T06:15:23.968Z,5.80
2019-02-18T06:18:11.765Z,4.43
2019-02-18T06:20:59.699Z,5.70
2019-02-18T06:23:47.876Z,6.43
2019-02-18T06:26:36.163Z,5.80
2019-02-18T06:29:24.005Z,4.77
2019-02-18T06:32:12.200Z,6.37
2019-02-18T06:34:59.834Z,4.17
2019-02-18T06:37:47.983Z,7.70
2019-02-18T06:40:35.894Z,8.47
2019-02-18T06:43:23.774Z,4.73
2019-02-18T06:46:37.248Z,6.77
2019-02-18T06:49:26.612Z,4.33
2019-02-18T06:52:14.536Z,6.20
2019-02-18T06:55:02.603Z,6.63
2019-02-18T06:58:18.526Z,4.97
2019-02-18T07:01:13.947Z,4.23
2019-02-18T07:04:20.515Z,5.87
2019-02-18T07:07:23.345Z,5.90
2019-02-18T07:10:20.055Z,7.73
2019-02-18T07:13:07.663Z,5.63
2019-02-18T07:15:55.802Z,4.70
2019-02-18T07:18:44.244Z,6.10
2019-02-18T07:21:32.272Z,6.30
2019-02-18T07:24:20.194Z,3.93
2019-02-18T10:32:37.187Z,11.37
2019-02-18T10:35:26.519Z,7.67
2019-02-18T10:38:14.287Z,4.37
2019-02-18T10:41:06.823Z,3.17
2019-02-18T10:43:54.686Z,7.97
2019-02-18T10:46:41.850Z,8.07
2019-02-18T10:49:29.713Z,4.93
2019-02-18T10:52:17.599Z,7.23
2019-02-18T10:55:06.036Z,9.43
2019-02-18T10:57:54.724Z,7.27
2019-02-18T11:00:42.852Z,7.77
2019-02-18T11:03:30.387Z,5.57
2019-02-18T11:06:18.440Z,8.27
2019-02-18T11:09:09.515Z,6.43
2019-02-18T11:11:57.489Z,10.50
2019-02-18T11:14:44.989Z,9.77
2019-02-18T11:17:38.827Z,10.93
2019-02-18T11:20:22.830Z,15.27
2019-02-18T11:23:11.049Z,15.23
2019-02-18T11:25:58.987Z,14.50
2019-02-18T11:28:46.846Z,14.03
2019-02-18T11:31:34.967Z,18.23
2019-02-18T11:34:23.098Z,19.80
2019-02-18T11:37:11.067Z,17.80
2019-02-18T11:39:58.734Z,15.73
2019-02-18T11:42:47.000Z,14.60
2019-02-18T11:45:35.306Z,15.73
2019-02-18T11:48:23.137Z,10.80
2019-02-18T11:51:11.209Z,18.10
2019-02-18T11:53:59.410Z,16.20
2019-02-18T11:56:47.692Z,18.10
2019-02-18T11:59:35.227Z,15.93
2019-02-18T12:02:22.843Z,16.60
2019-02-18T12:05:12.266Z,14.50
2019-02-18T12:08:00.174Z,16.57
2019-02-18T12:10:48.405Z,18.27
2019-02-18T12:13:36.966Z,16.60
2019-02-18T12:16:25.094Z,16.17
2019-02-18T12:19:13.182Z,21.10
2019-02-18T12:22:01.614Z,17.40
2019-02-18T12:24:49.783Z,13.90
2019-02-18T12:27:37.887Z,16.50
2019-02-18T12:30:25.444Z,18.33
2019-02-18T12:33:14.521Z,20.97
2019-02-18T12:36:02.630Z,15.73
2019-02-18T12:38:50.440Z,18.90
2019-02-18T12:41:47.974Z,22.00
2019-02-18T12:44:27.913Z,15.90
2019-02-18T12:47:16.223Z,17.27
2019-02-18T12:50:04.616Z,20.00
2019-02-18T12:52:52.606Z,15.27
2019-02-18T12:55:40.913Z,19.30
2019-02-18T12:58:28.979Z,24.90
2019-02-18T13:01:17.197Z,17.50
2019-02-18T13:04:05.022Z,16.73
2019-02-18T13:06:53.346Z,18.63
2019-02-18T13:09:41.608Z,20.70
2019-02-18T13:12:29.539Z,17.80
2019-02-18T13:15:17.533Z,20.10
2019-02-18T13:18:05.828Z,20.77
2019-02-18T13:20:54.116Z,21.23
2019-02-18T13:23:42.072Z,22.63
2019-02-18T13:26:29.675Z,20.90
2019-02-18T13:29:17.631Z,20.27
2019-02-18T13:32:05.625Z,16.07
2019-02-18T13:34:53.624Z,18.10
2019-02-18T13:37:41.854Z,30.87
2019-02-18T13:40:29.623Z,21.13
2019-02-18T13:43:17.541Z,23.03
2019-02-18T13:46:05.326Z,22.83
2019-02-18T13:48:52.966Z,22.80
2019-02-18T13:51:41.178Z,19.83
2019-02-18T13:54:28.774Z,24.87
2019-02-18T13:57:16.661Z,29.63
2019-02-18T14:00:04.786Z,25.40
2019-02-18T14:02:52.991Z,23.30
2019-02-18T14:05:41.399Z,20.17
2019-02-18T14:08:29.367Z,26.23
2019-02-18T14:11:17.636Z,22.10
2019-02-18T14:14:05.596Z,23.03
2019-02-18T14:16:53.592Z,26.37
2019-02-18T14:19:41.467Z,22.73
2019-02-18T14:22:29.472Z,23.23
2019-02-18T14:25:17.502Z,26.77
2019-02-18T14:28:05.797Z,19.77
2019-02-18T14:30:53.735Z,23.60
2019-02-18T14:33:41.829Z,19.30
2019-02-18T14:36:30.077Z,19.47
2019-02-18T14:39:24.175Z,23.07
2019-02-18T14:42:12.344Z,20.03
2019-02-18T14:45:00.964Z,21.47
2019-02-18T14:47:48.854Z,17.87
2019-02-18T14:50:36.713Z,23.80
2019-02-18T14:53:24.975Z,18.73
2019-02-18T14:56:15.081Z,22.10
2019-02-18T14:59:03.020Z,19.13
2019-02-18T15:01:51.122Z,24.07
2019-02-18T15:04:39.187Z,20.93
2019-02-18T15:07:27.162Z,20.83
2019-02-18T15:10:15.871Z,14.63
2019-02-18T15:13:03.895Z,22.60
2019-02-18T15:15:52.025Z,20.47
2019-02-18T15:18:40.046Z,19.13
2019-02-18T15:21:28.365Z,17.70
2019-02-18T15:24:16.615Z,17.97
2019-02-18T15:27:04.783Z,19.93
2019-02-18T15:29:53.132Z,17.63
2019-02-18T15:32:41.995Z,18.73
2019-02-18T15:35:29.798Z,19.10
2019-02-18T15:38:17.812Z,17.90
2019-02-18T15:41:05.804Z,16.03
2019-02-18T15:43:53.737Z,15.03
2019-02-18T15:46:44.590Z,17.80
2019-02-18T15:49:33.815Z,16.67
2019-02-18T15:52:22.018Z,20.03
2019-02-18T15:55:10.518Z,20.10
2019-02-18T15:57:58.366Z,14.90
2019-02-18T16:00:46.745Z,17.40
2019-02-18T16:03:34.800Z,14.63
2019-02-18T16:06:22.935Z,15.20
2019-02-18T16:09:10.875Z,14.23
2019-02-18T16:11:59.162Z,14.73
2019-02-18T16:14:47.390Z,16.97
2019-02-18T16:17:35.266Z,13.53
2019-02-18T16:20:23.452Z,13.03
2019-02-18T16:23:11.709Z,13.90
2019-02-18T16:25:59.806Z,13.77
2019-02-18T16:28:47.826Z,14.10
2019-02-18T16:31:35.892Z,19.67
2019-02-18T16:34:24.142Z,13.97
2019-02-18T16:37:12.367Z,15.50
2019-02-18T16:40:00.392Z,11.73
2019-02-18T16:42:48.160Z,14.73
2019-02-18T16:45:36.797Z,14.47
2019-02-18T16:48:25.631Z,13.00
2019-02-18T16:51:13.979Z,15.97
2019-02-18T16:54:02.105Z,15.47
2019-02-18T16:56:49.645Z,15.73
2019-02-18T16:59:37.817Z,14.83
2019-02-18T17:02:25.691Z,13.93
2019-02-18T17:05:13.920Z,14.53
2019-02-18T17:08:01.553Z,16.47
2019-02-18T17:10:49.782Z,16.00
2019-02-18T17:13:37.859Z,13.87
2019-02-18T17:16:26.038Z,15.70
2019-02-18T17:19:13.971Z,15.97
2019-02-18T17:22:02.000Z,16.97
2019-02-18T17:24:49.517Z,14.80
2019-02-18T17:27:37.433Z,13.93
2019-02-18T17:30:25.639Z,15.17
2019-02-18T17:33:13.660Z,16.03
2019-02-18T17:36:01.439Z,16.93
2019-02-18T17:38:49.049Z,14.50
2019-02-18T17:41:36.938Z,16.13
2019-02-18T17:44:25.406Z,13.60
2019-02-18T17:47:13.334Z,15.63
2019-02-18T17:50:01.302Z,19.43
2019-02-18T17:52:49.126Z,14.20
2019-02-18T17:55:37.465Z,16.30
2019-02-18T17:58:25.435Z,14.03
2019-02-18T18:01:13.068Z,15.77
2019-02-18T18:04:01.000Z,17.13
2019-02-18T18:06:49.099Z,19.40
2019-02-18T18:09:36.971Z,18.63
2019-02-18T18:12:24.756Z,14.13
2019-02-18T18:15:13.111Z,15.17
2019-02-18T18:18:01.265Z,17.87
2019-02-18T18:20:49.191Z,16.00
2019-02-18T18:23:37.447Z,17.73
2019-02-18T18:26:25.547Z,15.27
2019-02-18T18:29:13.502Z,20.17
2019-02-18T18:32:01.579Z,17.23
2019-02-18T18:34:49.487Z,17.03
2019-02-18T18:37:37.509Z,18.03
2019-02-18T18:40:25.651Z,16.63
2019-02-18T18:43:13.615Z,21.50
2019-02-18T18:46:01.797Z,16.83
2019-02-18T18:48:50.085Z,15.90
2019-02-18T18:51:38.314Z,17.97
2019-02-18T18:54:26.891Z,19.83
2019-02-18T18:57:15.248Z,16.60
2019-02-18T19:00:04.895Z,14.87
2019-02-18T19:02:52.863Z,15.83
2019-02-18T19:05:41.467Z,17.10
2019-02-18T19:08:29.895Z,18.03
2019-02-18T19:11:17.983Z,19.30
2019-02-18T19:14:06.064Z,17.43
2019-02-18T19:16:54.166Z,17.57
2019-02-18T19:19:42.226Z,17.60
2019-02-18T19:22:30.072Z,16.03
2019-02-18T19:25:18.489Z,17.50
2019-02-18T19:28:06.767Z,18.30
2019-02-18T19:30:54.990Z,17.50
2019-02-18T19:33:42.881Z,19.30
2019-02-18T19:36:32.329Z,16.80
2019-02-18T19:39:20.407Z,21.40
2019-02-18T19:42:08.361Z,18.37
2019-02-18T19:44:56.274Z,16.20
2019-02-18T19:47:44.181Z,15.63
2019-02-18T19:50:31.809Z,17.40
2019-02-18T19:53:20.071Z,20.23
2019-02-18T19:56:08.028Z,16.60
2019-02-18T19:58:56.208Z,16.87
2019-02-18T20:01:44.857Z,21.27
2019-02-18T20:04:32.848Z,19.30
2019-02-18T20:07:20.996Z,17.03
2019-02-18T20:10:09.465Z,21.50
2019-02-18T20:12:57.250Z,16.97
2019-02-18T20:15:47.560Z,19.60
2019-02-18T20:18:35.930Z,21.90
2019-02-18T20:21:24.303Z,18.20
2019-02-18T20:24:12.360Z,21.27
2019-02-18T20:27:00.883Z,21.00
2019-02-18T20:29:49.108Z,16.80
2019-02-18T20:32:37.485Z,19.20
2019-02-18T20:35:25.579Z,20.83
2019-02-18T20:38:13.225Z,17.60
2019-02-18T20:41:01.369Z,20.17
2019-02-18T20:43:49.449Z,22.17
2019-02-18T20:46:37.296Z,17.00
2019-02-18T20:49:25.125Z,18.87
2019-02-18T20:52:13.607Z,18.63
2019-02-18T20:55:01.788Z,17.17
2019-02-18T20:57:49.835Z,16.97
2019-02-18T21:00:37.878Z,18.97
2019-02-18T21:03:26.133Z,21.07
2019-02-18T21:06:14.132Z,17.70
2019-02-18T21:09:02.003Z,15.73
2019-02-18T21:11:49.951Z,16.47
2019-02-18T21:14:38.153Z,19.27
2019-02-18T21:17:26.816Z,18.27
2019-02-18T21:20:15.316Z,22.27
2019-02-18T21:23:02.859Z,21.07
2019-02-18T21:25:51.127Z,19.87
2019-02-18T21:28:39.355Z,18.93
2019-02-18T21:31:27.422Z,19.00
2019-02-18T21:34:15.710Z,16.90
2019-02-18T21:37:03.369Z,21.13
2019-02-18T21:39:51.248Z,20.13
2019-02-18T21:42:40.941Z,18.77
2019-02-18T21:45:29.261Z,21.67
2019-02-18T21:48:17.751Z,16.63
2019-02-18T21:51:05.951Z,20.20
2019-02-18T21:53:53.757Z,18.27
2019-02-18T21:56:41.633Z,18.40
2019-02-18T21:59:29.965Z,16.80
2019-02-18T22:02:17.907Z,17.63
2019-02-18T22:05:06.045Z,18.13
2019-02-18T22:07:54.176Z,21.60
2019-02-18T22:10:42.111Z,17.57
2019-02-18T22:13:30.262Z,18.77
2019-02-18T22:16:17.834Z,20.13
2019-02-18T22:19:05.854Z,19.10
2019-02-18T22:21:53.927Z,15.87
2019-02-18T22:24:41.868Z,17.30
2019-02-18T22:27:29.951Z,18.53
2019-02-18T22:30:18.075Z,16.80
2019-02-18T22:33:05.959Z,18.50
2019-02-18T22:35:54.326Z,16.50
2019-02-18T22:38:41.905Z,16.17
2019-02-18T22:41:30.100Z,16.50
2019-02-18T22:44:17.949Z,17.10
2019-02-18T22:47:06.095Z,20.50
2019-02-18T22:49:53.934Z,17.77
2019-02-18T22:52:41.705Z,15.43
2019-02-18T22:55:30.087Z,16.30
2019-02-18T22:58:18.205Z,19.10
2019-02-18T23:01:06.773Z,17.13
2019-02-18T23:03:54.397Z,17.13
2019-02-18T23:06:42.400Z,16.73
2019-02-18T23:09:30.070Z,19.80
2019-02-18T23:12:17.989Z,18.07
2019-02-18T23:15:06.335Z,17.23
2019-02-18T23:17:54.221Z,16.10
2019-02-18T23:20:42.069Z,19.27
2019-02-18T23:23:30.598Z,17.67
2019-02-18T23:26:19.073Z,17.33
2019-02-18T23:29:06.585Z,19.63
2019-02-18T23:31:54.650Z,17.47
2019-02-18T23:34:42.518Z,17.50
2019-02-18T23:37:30.805Z,22.23
2019-02-18T23:40:18.837Z,16.97
2019-02-18T23:43:06.687Z,18.97
2019-02-18T23:45:54.548Z,17.27
2019-02-18T23:48:42.334Z,18.03
2019-02-18T23:51:29.939Z,20.47
2019-02-18T23:54:17.816Z,18.03
2019-02-18T23:57:05.623Z,17.67
2019-02-18T23:59:53.663Z,17.13
